createdAt,value
2023-12-24T00:02:23.779Z,99779.06
2023-12-24T00:05:26.036Z,99777.16
2023-12-24T00:08:30.245Z,99788.13
2023-12-24T00:11:32.843Z,99793.66
2023-12-24T00:14:35.081Z,99798.47
2023-12-24T00:17:37.321Z,99796.03
2023-12-24T00:20:39.541Z,99793.53
2023-12-24T00:23:43.741Z,99796.50
2023-12-24T00:26:45.748Z,99800.72
2023-12-24T00:29:47.727Z,99790.63
2023-12-24T00:32:49.978Z,99798.53
2023-12-24T00:35:52.104Z,99807.22
2023-12-24T00:38:54.047Z,99820.56
2023-12-24T00:41:56.034Z,99825.53
2023-12-24T00:44:58.153Z,99820.44
2023-12-24T00:48:01.904Z,99818.09
2023-12-24T00:51:05.328Z,99820.50
2023-12-24T00:54:09.540Z,99834.06
2023-12-24T00:57:11.504Z,99839.47
2023-12-24T01:00:15.026Z,99854.81
2023-12-24T01:03:17.075Z,99848.84
2023-12-24T01:06:19.661Z,99861.75
2023-12-24T01:09:22.075Z,99856.47
2023-12-24T01:12:24.013Z,99871.50
2023-12-24T01:15:26.007Z,99880.53
2023-12-24T01:18:28.559Z,99873.44
2023-12-24T01:21:30.875Z,99864.75
2023-12-24T01:24:32.931Z,99872.25
2023-12-24T01:27:34.885Z,99866.53
2023-12-24T01:30:37.307Z,99855.25
2023-12-24T01:33:40.208Z,99867.22
2023-12-24T01:36:42.284Z,99868.25
2023-12-24T01:39:44.222Z,99867.38
2023-12-24T01:42:47.233Z,99870.31
2023-12-24T01:45:49.853Z,99867.16
2023-12-24T01:48:52.080Z,99865.66
2023-12-24T01:51:55.618Z,99864.66
2023-12-24T01:54:58.362Z,99866.97
2023-12-24T01:58:00.453Z,99865.47
2023-12-24T02:01:02.903Z,99867.59
2023-12-24T02:04:05.447Z,99875.13
2023-12-24T02:07:08.817Z,99865.41
2023-12-24T02:10:11.192Z,99864.91
2023-12-24T02:13:14.051Z,99862.56
2023-12-24T02:16:22.596Z,99863.22
2023-12-24T02:19:27.906Z,99863.56
2023-12-24T02:22:30.038Z,99869.44
2023-12-24T02:25:33.114Z,99867.28
2023-12-24T02:28:43.434Z,99870.25
2023-12-24T02:31:50.496Z,99868.44
2023-12-24T02:34:54.614Z,99879.94
2023-12-24T02:37:56.928Z,99871.44
2023-12-24T02:40:59.145Z,99876.53
2023-12-24T02:44:01.624Z,99876.47
2023-12-24T02:47:04.403Z,99884.03
2023-12-24T02:50:07.411Z,99879.63
2023-12-24T02:53:09.600Z,99877.69
2023-12-24T02:56:11.772Z,99881.75
2023-12-24T02:59:13.805Z,99880.88
2023-12-24T03:02:15.947Z,99873.84
2023-12-24T03:05:18.333Z,99868.09
2023-12-24T03:08:20.832Z,99863.25
2023-12-24T03:11:22.844Z,99880.41
2023-12-24T03:14:25.104Z,99865.72
2023-12-24T03:17:27.414Z,99867.25
2023-12-24T03:20:29.550Z,99869.06
2023-12-24T03:23:32.724Z,99859.22
2023-12-24T03:26:35.274Z,99866.72
2023-12-24T03:29:37.688Z,99874.59
2023-12-24T03:32:40.049Z,99871.84
2023-12-24T03:35:44.533Z,99875.66
2023-12-24T03:38:46.964Z,99872.94
2023-12-24T03:41:49.511Z,99867.91
2023-12-24T03:44:52.213Z,99876.69
2023-12-24T03:47:54.724Z,99871.66
2023-12-24T03:50:56.752Z,99883.16
2023-12-24T03:53:59.352Z,99870.56
2023-12-24T03:57:01.656Z,99871.66
2023-12-24T04:00:03.879Z,99881.63
2023-12-24T04:03:06.844Z,99877.75
2023-12-24T04:06:33.028Z,99890.41
2023-12-24T04:09:36.438Z,99880.75
2023-12-24T04:12:43.875Z,99855.91
2023-12-24T04:15:46.386Z,99881.03
2023-12-24T04:18:48.593Z,99877.19
2023-12-24T04:21:50.998Z,99871.66
2023-12-24T04:24:53.485Z,99866.41
2023-12-24T04:27:55.631Z,99862.06
2023-12-24T04:30:57.735Z,99851.69
2023-12-24T04:34:00.085Z,99856.63
2023-12-24T04:37:02.221Z,99855.41
2023-12-24T04:40:06.075Z,99846.97
2023-12-24T04:43:08.454Z,99844.72
2023-12-24T04:46:10.482Z,99844.97
2023-12-24T04:49:12.770Z,99836.50
2023-12-24T04:52:15.191Z,99840.47
2023-12-24T04:55:17.657Z,99838.84
2023-12-24T04:58:22.052Z,99835.44
2023-12-24T05:01:24.517Z,99835.75
2023-12-24T05:04:28.406Z,99844.84
2023-12-24T05:07:31.310Z,99848.06
2023-12-24T05:10:34.887Z,99844.25
2023-12-24T05:13:37.786Z,99847.53
2023-12-24T05:16:39.941Z,99850.94
2023-12-24T05:19:44.704Z,99860.72
2023-12-24T05:22:47.150Z,99847.97
2023-12-24T05:25:49.517Z,99842.78
2023-12-24T05:28:54.742Z,99852.28
2023-12-24T05:31:59.372Z,99862.22
2023-12-24T05:35:02.017Z,99855.53
2023-12-24T05:38:04.556Z,99861.84
2023-12-24T05:41:10.155Z,99854.22
2023-12-24T05:44:12.505Z,99863.63
2023-12-24T05:47:14.737Z,99856.16
2023-12-24T05:50:19.491Z,99860.34
2023-12-24T05:53:24.777Z,99838.94
2023-12-24T05:56:29.556Z,99853.13
2023-12-24T05:59:32.728Z,99854.78
2023-12-24T06:02:37.258Z,99863.16
2023-12-24T06:05:46.542Z,99853.53
2023-12-24T06:08:49.220Z,99852.22
2023-12-24T06:11:51.985Z,99849.50
2023-12-24T06:14:54.953Z,99874.44
2023-12-24T06:17:57.740Z,99870.09
2023-12-24T06:21:06.475Z,99858.59
2023-12-24T06:24:09.016Z,99854.78
2023-12-24T06:27:14.447Z,99867.31
2023-12-24T06:30:21.391Z,99861.31
2023-12-24T06:33:24.024Z,99850.84
2023-12-24T06:36:32.474Z,99863.97
2023-12-24T06:39:41.331Z,99865.28
2023-12-24T06:42:44.567Z,99893.75
2023-12-24T06:45:47.292Z,99880.28
2023-12-24T06:48:50.483Z,99874.13
2023-12-24T06:51:54.904Z,99892.69
2023-12-24T06:54:57.869Z,99894.00
2023-12-24T06:58:04.328Z,99896.34
2023-12-24T07:01:14.833Z,99890.41
2023-12-24T07:04:24.027Z,99885.06
2023-12-24T07:07:27.874Z,99895.81
2023-12-24T07:10:30.197Z,99911.47
2023-12-24T07:13:32.386Z,99907.16
2023-12-24T07:16:36.768Z,99912.91
2023-12-24T07:19:40.548Z,99916.72
2023-12-24T07:22:42.638Z,99924.13
2023-12-24T07:25:44.891Z,99912.03
2023-12-24T07:28:48.907Z,99911.09
2023-12-24T07:31:51.241Z,99915.75
2023-12-24T07:34:55.419Z,99909.09
2023-12-24T07:37:57.929Z,99892.63
2023-12-24T07:41:00.364Z,99908.97
2023-12-24T07:44:02.822Z,99917.44
2023-12-24T07:47:05.087Z,99928.63
2023-12-24T07:50:08.775Z,99924.69
2023-12-24T07:53:11.047Z,99930.28
2023-12-24T07:56:14.931Z,99933.56
2023-12-24T07:59:17.193Z,99939.69
2023-12-24T08:02:19.673Z,99952.13
2023-12-24T08:05:21.691Z,99946.94
2023-12-24T08:08:23.813Z,99953.59
2023-12-24T08:11:26.945Z,99955.50
2023-12-24T08:14:30.617Z,99962.44
2023-12-24T08:17:33.069Z,99959.41
2023-12-24T08:20:38.089Z,99960.50
2023-12-24T08:23:40.958Z,99962.09
2023-12-24T08:26:43.460Z,99972.63
2023-12-24T08:29:45.601Z,99969.03
2023-12-24T08:32:47.594Z,99975.28
2023-12-24T08:35:49.566Z,99981.19
2023-12-24T08:38:51.640Z,99998.41
2023-12-24T08:41:53.667Z,99998.06
2023-12-24T08:44:55.841Z,99993.28
2023-12-24T08:47:58.845Z,99997.66
2023-12-24T08:51:05.885Z,100010.47
2023-12-24T08:54:08.233Z,100014.19
2023-12-24T08:57:10.883Z,100022.34
2023-12-24T09:00:14.134Z,100027.13
2023-12-24T09:03:18.498Z,100027.22
2023-12-24T09:06:23.677Z,100023.94
2023-12-24T09:09:26.162Z,100017.94
2023-12-24T09:12:28.824Z,100019.56
2023-12-24T09:15:30.924Z,100015.28
2023-12-24T09:18:35.066Z,100014.59
2023-12-24T09:21:37.227Z,100016.38
2023-12-24T09:24:40.560Z,100018.41
2023-12-24T09:27:42.402Z,100014.31
2023-12-24T09:30:44.682Z,100013.78
2023-12-24T09:33:47.089Z,100010.09
2023-12-24T09:36:49.377Z,100003.53
2023-12-24T09:39:51.403Z,100014.16
2023-12-24T09:42:54.812Z,100030.00
2023-12-24T09:45:57.170Z,100029.88
2023-12-24T09:48:59.293Z,100034.47
2023-12-24T09:52:01.893Z,100031.34
2023-12-24T09:55:05.124Z,100026.94
2023-12-24T09:58:07.374Z,100021.44
2023-12-24T10:01:09.628Z,100013.97
2023-12-24T10:04:15.716Z,100024.72
2023-12-24T10:07:18.892Z,100013.47
2023-12-24T10:10:31.071Z,100027.25
2023-12-24T10:13:33.178Z,100020.84
2023-12-24T10:16:47.450Z,100028.38
2023-12-24T10:19:49.704Z,100014.97
2023-12-24T10:23:06.632Z,100010.78
2023-12-24T10:26:13.537Z,100007.59
2023-12-24T10:29:24.360Z,100003.66
2023-12-24T10:32:34.438Z,100006.63
2023-12-24T10:35:39.973Z,99992.06
2023-12-24T10:38:43.337Z,99986.63
2023-12-24T10:41:49.738Z,99975.09
2023-12-24T10:44:58.514Z,99995.13
2023-12-24T10:48:02.480Z,99980.69
2023-12-24T10:51:05.166Z,99977.13
2023-12-24T10:54:12.138Z,99982.53
2023-12-24T10:57:52.012Z,99984.47
2023-12-24T11:00:55.158Z,99985.13
2023-12-24T11:03:58.585Z,99974.25
2023-12-24T11:07:06.393Z,99957.59
2023-12-24T11:10:08.558Z,99951.25
2023-12-24T11:16:57.232Z,99927.50
2023-12-24T11:20:24.955Z,99944.44
2023-12-24T11:23:27.064Z,99942.97
2023-12-24T11:26:33.655Z,99944.09
2023-12-24T11:29:50.433Z,99941.16
2023-12-24T11:32:53.238Z,99938.38
2023-12-24T11:36:01.784Z,99937.91
2023-12-24T11:39:05.052Z,99942.94
2023-12-24T11:42:07.415Z,99937.56
2023-12-24T11:45:20.458Z,99929.41
2023-12-24T11:48:31.420Z,99926.66
2023-12-24T11:51:33.935Z,99924.06
2023-12-24T11:54:36.134Z,99920.31
2023-12-24T11:57:38.737Z,99917.19
2023-12-24T12:00:40.824Z,99908.41
2023-12-24T12:03:43.231Z,99889.00
2023-12-24T12:06:51.048Z,99885.09
2023-12-24T12:09:53.597Z,99887.53
2023-12-24T12:12:58.344Z,99886.06
2023-12-24T12:16:03.240Z,99901.16
2023-12-24T12:19:09.164Z,99899.38
2023-12-24T12:22:15.518Z,99880.00
2023-12-24T12:25:22.890Z,99896.13
2023-12-24T12:28:31.996Z,99900.19
2023-12-24T12:32:02.303Z,99894.81
2023-12-24T12:35:11.379Z,99868.06
2023-12-24T12:38:20.618Z,99894.28
2023-12-24T12:41:26.910Z,99910.59
2023-12-24T12:44:34.553Z,99891.16
2023-12-24T12:47:44.979Z,99909.25
2023-12-24T12:50:59.163Z,99909.47
2023-12-24T12:54:07.927Z,99906.84
2023-12-24T12:57:14.262Z,99917.25
2023-12-24T13:00:32.610Z,99882.09
2023-12-24T13:04:04.678Z,99889.56
2023-12-24T13:07:10.077Z,99910.13
2023-12-24T13:10:34.298Z,99917.81
2023-12-24T13:13:39.493Z,99912.31
2023-12-24T13:16:43.286Z,99903.84
2023-12-24T13:19:46.665Z,99919.31
2023-12-24T13:22:49.579Z,99915.72
2023-12-24T13:25:52.743Z,99912.47
2023-12-24T13:28:58.887Z,99915.38
2023-12-24T13:32:01.134Z,99902.66
2023-12-24T13:35:03.500Z,99895.78
2023-12-24T13:38:09.560Z,99910.63
2023-12-24T13:41:12.866Z,99903.78
2023-12-24T13:44:16.010Z,99910.16
2023-12-24T13:47:18.308Z,99926.16
2023-12-24T13:50:21.731Z,99927.47
2023-12-24T13:53:31.352Z,99940.47
2023-12-24T13:56:35.110Z,99931.84
2023-12-24T13:59:37.253Z,99933.94
2023-12-24T14:02:39.608Z,99936.19
2023-12-24T14:05:41.983Z,99933.59
2023-12-24T14:08:45.440Z,99936.19
2023-12-24T14:11:48.102Z,99935.00
2023-12-24T14:14:51.932Z,99940.09
2023-12-24T14:17:54.384Z,99948.91
2023-12-24T14:20:56.526Z,99943.38
2023-12-24T14:24:01.008Z,99929.19
2023-12-24T14:27:04.553Z,99927.53
2023-12-24T14:30:08.993Z,99931.59
2023-12-24T14:33:12.896Z,99931.25
2023-12-24T14:36:16.031Z,99932.50
2023-12-24T14:39:18.410Z,99943.41
2023-12-24T14:42:24.175Z,99947.34
2023-12-24T14:45:26.414Z,99945.41
2023-12-24T14:48:30.275Z,99935.78
2023-12-24T14:51:33.149Z,99948.31
2023-12-24T14:54:36.252Z,99949.19
2023-12-24T14:57:39.744Z,99963.00
2023-12-24T15:00:42.775Z,99966.97
2023-12-24T15:03:45.171Z,99966.34
2023-12-24T15:06:49.857Z,99967.75
2023-12-24T15:09:52.547Z,99970.53
2023-12-24T15:12:55.007Z,99978.31
2023-12-24T15:15:58.188Z,99981.41
2023-12-24T15:19:00.614Z,99984.72
2023-12-24T15:22:04.552Z,99974.94
2023-12-24T15:25:06.672Z,99972.84
2023-12-24T15:28:08.893Z,99989.22
2023-12-24T15:31:14.526Z,99994.38
2023-12-24T15:34:17.132Z,99996.69
2023-12-24T15:37:22.238Z,99997.50
2023-12-24T15:40:24.730Z,99990.38
2023-12-24T15:43:27.404Z,100000.16
2023-12-24T15:46:29.726Z,100006.31
2023-12-24T15:49:32.019Z,100009.59
2023-12-24T15:52:37.159Z,100011.41
2023-12-24T15:55:39.456Z,100010.09
2023-12-24T15:58:41.854Z,99996.94
2023-12-24T16:01:45.274Z,100005.06
2023-12-24T16:04:48.444Z,99999.81
2023-12-24T16:07:51.184Z,99989.88
2023-12-24T16:10:53.495Z,99993.94
2023-12-24T16:13:55.651Z,99994.13
2023-12-24T16:16:59.237Z,99995.25
2023-12-24T16:20:01.421Z,99999.28
2023-12-24T16:23:10.404Z,100003.41
2023-12-24T16:26:18.860Z,99999.19
2023-12-24T16:29:25.366Z,99992.00
2023-12-24T16:32:31.614Z,99996.50
2023-12-24T16:35:38.518Z,99983.91
2023-12-24T16:38:42.070Z,99999.97
2023-12-24T16:41:46.687Z,100000.94
2023-12-24T16:44:57.829Z,99993.31
2023-12-24T16:48:00.332Z,99991.72
2023-12-24T16:51:02.770Z,99992.47
2023-12-24T16:54:05.316Z,99986.47
2023-12-24T16:57:07.698Z,99990.13
2023-12-24T17:00:10.467Z,99989.44
2023-12-24T17:03:13.133Z,99991.41
2023-12-24T17:06:15.767Z,100000.34
2023-12-24T17:09:21.432Z,99994.94
2023-12-24T17:12:23.783Z,99995.22
2023-12-24T17:15:30.112Z,100005.69
2023-12-24T17:18:36.360Z,100017.56
2023-12-24T17:21:39.213Z,99990.44
2023-12-24T17:24:43.414Z,99978.88
2023-12-24T17:27:49.663Z,100000.13
2023-12-24T17:30:52.111Z,100006.97
2023-12-24T17:33:56.747Z,99990.78
2023-12-24T17:37:01.874Z,99978.81
2023-12-24T17:40:05.132Z,99987.75
2023-12-24T17:43:07.377Z,99990.22
2023-12-24T17:46:09.446Z,99991.84
2023-12-24T17:49:12.720Z,99994.44
2023-12-24T17:52:16.705Z,99987.09
2023-12-24T17:55:18.867Z,99987.09
2023-12-24T17:58:29.843Z,99991.84
2023-12-24T18:01:32.592Z,99976.66
2023-12-24T18:04:35.781Z,99982.06
2023-12-24T18:07:38.973Z,99989.41
2023-12-24T18:10:41.816Z,99974.91
2023-12-24T18:13:44.080Z,99969.19
2023-12-24T18:16:46.436Z,99967.59
2023-12-24T18:19:48.613Z,99966.06
2023-12-24T18:22:51.142Z,99969.84
2023-12-24T18:25:56.071Z,99983.53
2023-12-24T18:29:00.894Z,99984.50
2023-12-24T18:32:04.805Z,99979.97
2023-12-24T18:35:07.216Z,99973.25
2023-12-24T18:38:09.357Z,99963.31
2023-12-24T18:41:19.606Z,99962.34
2023-12-24T18:44:22.406Z,99963.66
2023-12-24T18:47:24.606Z,99968.75
2023-12-24T18:50:26.757Z,99957.69
2023-12-24T18:53:34.733Z,99960.47
2023-12-24T18:56:39.035Z,99955.06
2023-12-24T18:59:41.263Z,99957.81
2023-12-24T19:02:43.583Z,99959.91
2023-12-24T19:05:46.028Z,99959.94
2023-12-24T19:08:48.238Z,99954.06
2023-12-24T19:11:50.388Z,99951.91
2023-12-24T19:14:52.662Z,99950.34
2023-12-24T19:17:54.899Z,99946.59
2023-12-24T19:20:57.111Z,99948.66
2023-12-24T19:23:59.091Z,99947.41
2023-12-24T19:27:02.251Z,99956.75
2023-12-24T19:30:05.254Z,99961.41
2023-12-24T19:33:08.853Z,99963.09
2023-12-24T19:36:11.105Z,99969.59
2023-12-24T19:39:22.885Z,99962.50
2023-12-24T19:42:32.702Z,99967.75
2023-12-24T19:45:35.238Z,99976.69
2023-12-24T19:48:37.600Z,99974.59
2023-12-24T19:51:40.916Z,99974.59
2023-12-24T19:54:44.065Z,99966.75
2023-12-24T19:57:46.734Z,99972.97
2023-12-24T20:00:49.249Z,99975.88
2023-12-24T20:03:51.341Z,99972.63
2023-12-24T20:06:54.888Z,99974.25
2023-12-24T20:09:56.994Z,99973.25
2023-12-24T20:12:59.825Z,99970.50
2023-12-24T20:16:02.139Z,99966.59
2023-12-24T20:19:04.561Z,99971.97
2023-12-24T20:22:06.914Z,99972.63
2023-12-24T20:25:11.535Z,99968.56
2023-12-24T20:28:13.780Z,99974.41
2023-12-24T20:31:16.702Z,99969.22
2023-12-24T20:34:18.697Z,99960.56
2023-12-24T20:37:21.530Z,99967.75
2023-12-24T20:40:23.831Z,99958.59
2023-12-24T20:43:28.768Z,99958.75
2023-12-24T20:46:30.894Z,99955.50
2023-12-24T20:49:34.290Z,99956.66
2023-12-24T20:52:36.558Z,99960.38
2023-12-24T20:55:38.830Z,99969.38
2023-12-24T20:58:41.245Z,99972.28
2023-12-24T21:01:43.529Z,99988.09
2023-12-24T21:04:45.656Z,99985.34
2023-12-24T21:07:49.432Z,99988.25
2023-12-24T21:10:51.597Z,99983.53
2023-12-24T21:13:54.264Z,99981.41
2023-12-24T21:16:56.153Z,99982.22
2023-12-24T21:19:58.173Z,99971.13
2023-12-24T21:23:01.060Z,99973.75
2023-12-24T21:26:03.067Z,99966.25
2023-12-24T21:29:05.562Z,99950.78
2023-12-24T21:32:07.477Z,99957.63
2023-12-24T21:35:09.837Z,99956.16
2023-12-24T21:38:12.111Z,99956.81
2023-12-24T21:41:15.821Z,99948.66
2023-12-24T21:44:17.779Z,99947.69
2023-12-24T21:47:20.669Z,99939.72
2023-12-24T21:50:22.815Z,99933.03
2023-12-24T21:53:25.369Z,99910.19
2023-12-24T21:56:32.855Z,99926.50
2023-12-24T21:59:35.590Z,99923.06
2023-12-24T22:02:37.678Z,99926.03
2023-12-24T22:05:40.891Z,99922.44
2023-12-24T22:08:45.214Z,99923.88
2023-12-24T22:11:47.405Z,99916.22
2023-12-24T22:14:51.961Z,99921.28
2023-12-24T22:17:57.202Z,99914.75
2023-12-24T22:21:02.154Z,99925.53
2023-12-24T22:24:04.810Z,99935.94
2023-12-24T22:27:06.915Z,99915.56
2023-12-24T22:30:10.930Z,99919.16
2023-12-24T22:33:14.050Z,99910.03
2023-12-24T22:36:16.342Z,99900.44
2023-12-24T22:39:20.171Z,99879.88
2023-12-24T22:42:22.116Z,99848.78
2023-12-24T22:45:26.789Z,99850.72
2023-12-24T22:48:28.983Z,99889.97
2023-12-24T22:51:31.425Z,99884.47
2023-12-24T22:54:33.509Z,99864.56
2023-12-24T22:57:35.611Z,99852.84
2023-12-24T23:00:37.639Z,99838.84
2023-12-24T23:03:43.885Z,99830.34
2023-12-24T23:06:46.106Z,99822.22
2023-12-24T23:09:48.263Z,99824.81
2023-12-24T23:12:50.689Z,99838.50
2023-12-24T23:15:54.413Z,99815.06
2023-12-24T23:18:56.855Z,99809.03
2023-12-24T23:22:00.309Z,99803.00
2023-12-24T23:25:04.471Z,99824.16
2023-12-24T23:28:09.447Z,99810.78
2023-12-24T23:31:11.572Z,99814.56
2023-12-24T23:34:13.906Z,99807.53
2023-12-24T23:37:16.497Z,99805.09
2023-12-24T23:40:18.800Z,99805.75
2023-12-24T23:43:25.451Z,99826.72
2023-12-24T23:46:27.529Z,99830.47
2023-12-24T23:49:32.656Z,99848.19
2023-12-24T23:52:37.507Z,99844.59
2023-12-24T23:55:39.704Z,99845.91
2023-12-24T23:58:41.848Z,99848.19
